This is the latest recevied weather packets stored in our database for station/object KI7JYE. If no packets are shown the sender has not sent any weather packets the latest 10 day(s).
| Time | Temp. | Humidity | Pressure | Rain* | Wind** | Luminosity | Snow |
|---|---|---|---|---|---|---|---|
| 1777948606 | 20.56° C | 66% | 1009.4 hPa | 0 mm | - | 24 W/m² | - |
| 1777948303 | 21.11° C | 64% | 1009.4 hPa | 0 mm | - | 28 W/m² | - |
| 1777948000 | 21.67° C | 63% | 1009.3 hPa | 0 mm | - | 32 W/m² | - |
| 1777947698 | 22.22° C | 62% | 1009.2 hPa | 0 mm | - | 35 W/m² | - |
| 1777947394 | 22.22° C | 61% | 1009.2 hPa | 0 mm | - | 39 W/m² | - |
| 1777947091 | 22.78° C | 61% | 1009.2 hPa | 0 mm | - | 42 W/m² | - |
| 1777946786 | 22.78° C | 61% | 1009.2 hPa | 0 mm | - | 45 W/m² | - |
| 1777946483 | 22.78° C | 62% | 1009.2 hPa | 0 mm | - | 49 W/m² | - |
| 1777946180 | 22.78° C | 60% | 1009.2 hPa | 0 mm | - | 52 W/m² | - |
| 1777945876 | 22.78° C | 61% | 1009.3 hPa | 0 mm | - | 67 W/m² | - |
| 1777945573 | 22.78° C | 59% | 1009.3 hPa | 0 mm | - | 89 W/m² | - |
| 1777945270 | 22.78° C | 61% | 1009.1 hPa | 0 mm | - | 99 W/m² | - |
| 1777944968 | 23.33° C | 60% | 1009.4 hPa | 0 mm | - | 111 W/m² | - |
| 1777944665 | 23.33° C | 60% | 1009.1 hPa | 0 mm | - | 122 W/m² | - |
| 1777944363 | 23.89° C | 60% | 1009.2 hPa | 0 mm | - | 131 W/m² | - |
| 1777944059 | 24.44° C | 59% | 1009.1 hPa | 0 mm | - | 149 W/m² | - |
| 1777943755 | 23.89° C | 60% | 1009.1 hPa | 0 mm | - | 167 W/m² | - |
| 1777943453 | 23.89° C | 61% | 1009.5 hPa | 0 mm | - | 178 W/m² | - |
| 1777943148 | 23.89° C | 61% | 1009.4 hPa | 0 mm | - | 194 W/m² | - |
| 1777942845 | 24.44° C | 59% | 1009.5 hPa | 0 mm | - | 209 W/m² | - |
| 1777942541 | 25° C | 56% | 1009.5 hPa | 0 mm | - | 223 W/m² | - |
| 1777942239 | 24.44° C | 58% | 1009.3 hPa | 0 mm | - | 229 W/m² | - |
| 1777941935 | 24.44° C | 58% | 1009.6 hPa | 0 mm | - | 234 W/m² | - |
| 1777941632 | 24.44° C | 57% | 1009.3 hPa | 0 mm | - | 260 W/m² | - |
| 1777941329 | 25° C | 58% | 1009.5 hPa | 0 mm | - | 270 W/m² | - |
* Rain latest hour (hover to see other rain measurements)
** Current wind speed in m/s (hover to see current wind gust speed)